Eastpoint, FL

3:35 AM EDT on April 18, 2015 (GMT -0400)
Panama City Tyndall AFB | | Change Station
CLOSE
Current Station
Airport
Location: Panama City Tyndall AFB,
Elevation: 16 ft
Nearby Weather Stations

Elev 16 ft 30.07 °N, 85.58 °W | Updated 7 minutes ago

Rain
Rain
70 °F
Feels Like 70 °F
N
0
Wind Variable Wind from North

Today
High -- | Low -- °F
--% Chance of Precip.
Yesterday
High -- | Low -- °F
Precip. -- in
7:10 AM 8:08 PM
Waning Crescent, 0% visible
Pressure 29.93 in
Visibility 0.8 miles
Clouds Clear
Dew Point 70 °F
Humidity 100%
Rainfall 0.00 in
Snow Depth Not available.
UV 0 out of 12
Pollen 7.40 out of 12
Air Quality Not available.
Flu Activity Local Activity
SPECI KPAM 180728Z AUTO 00000KT 3/4SM R14/2400FT BR CLR 21/21 A2993 RMK AO2 VIS 3/4V6 $

More Conditions Fewer Conditions

Pressure 29.93 in
Visibility 0.8 miles
Clouds Clear
Dew Point 70 °F
Humidity 100%
Rainfall 0.00 in
Snow Depth Not available.
UV 0 out of 12
Pollen 7.40 out of 12
Air Quality Not available.
Flu Activity Local Activity
SPECI KPAM 180728Z AUTO 00000KT 3/4SM R14/2400FT BR CLR 21/21 A2993 RMK AO2 VIS 3/4V6 $

More Conditions Fewer Conditions

10-Day Weather Forecast

Almanac

Astronomy

Apr. 18, 2015 Rise Set
Actual Time
Civil Twilight
Nautical Twilight
Astronomical Twilight
Moon
Length of Visible Light
Length of Day
Tomorrow will be .
, % of the Moon is Illuminated

Today's Extremes

State Highs State Lows

Community

WunderPhotos

Upload Photos

1,814,345 photos uploaded!

WunderBlogs® & News

Nearby

Air Quality

  Air Quality AQ Index Pollutant
Not available.

Snow Depth

Station Depth Elevation

Earthquake Activity

City Distance Mag. Time & Date
Minimum magnitude displayed is 2.5.

Coastal Water Temperatures

Place Temperature

Stations

Nearby Weather Stations

Station Location Temp. Windchill Dew Point Humidity Wind Precip. Elev Updated Type